Sv.knyaz Vladimir — UBKI2 — position and weather

sailwx.info

Track history (hours):
 
Tides and Currents Weather Stations Pressure Air Temp Water Temp Dewpoint Dewpoint Depression Visibility Wind Speed Wind Dir Waves Ship Positions

Sv.knyaz Vladimir

Last reported at 2017-Apr-08 19:55 UTC. Time now 2017-Apr-24 05:26 UTC.
Position N 45°05' E 036°29'.
Warning: this ship's position is 15 days out of date.

Length 128 m; draft 3.5 m.

Type: Cargo ship. MMSI: 273350360.

Date/timePositionNaut miles runAvg speedWind from/ knotsBaromVisibWave heightAir tempDewpointWater temp
2017-Apr-08 19:55N 45°05' E 036°29'4 8.4
2017-Apr-08 19:29N 45°08' E 036°29'4 8.4
2017-Apr-08 19:00N 45°12' E 036°28'4 7.9
2017-Apr-08 18:30N 45°16' E 036°28'3 6.9
2017-Apr-08 18:00N 45°19' E 036°32'4 8.7
2017-Apr-08 17:30N 45°21' E 036°37'4 7.5
2017-Apr-08 17:00N 45°24' E 036°40'3 6.6
2017-Apr-08 16:30N 45°27' E 036°40'1 2.3
2017-Apr-08 15:58N 45°28' E 036°40'0 0.0
2017-Apr-08 15:25N 45°28' E 036°40'0 0.0
2017-Apr-08 14:58N 45°28' E 036°40'0 0.2
2017-Apr-08 14:01N 45°28' E 036°40'3 6.9
2017-Apr-08 13:30N 45°30' E 036°44'4 8.3
2017-Apr-08 13:00N 45°34' E 036°46'93 3.3
2017-Apr-07 08:31N 46°45' E 038°14'0 0.1
2017-Apr-07 08:25N 46°45' E 038°14'0 0.0
2017-Apr-07 07:16N 46°45' E 038°14'0 0.1
2017-Apr-07 05:22N 46°45' E 038°14'0 0.0
2017-Apr-07 04:49N 46°45' E 038°14'0 0.0
2017-Apr-07 04:25N 46°45' E 038°14'0 0.0
2017-Apr-07 03:55N 46°45' E 038°14'0 0.0
2017-Apr-07 03:25N 46°45' E 038°14'0 0.1
2017-Apr-07 02:55N 46°45' E 038°14'0 0.0
2017-Apr-07 02:25N 46°45' E 038°14'0 0.0
2017-Apr-07 01:55N 46°45' E 038°14'0 0.0
2017-Apr-07 01:25N 46°45' E 038°14'0 0.0
2017-Apr-07 00:55N 46°45' E 038°14'0 0.0
2017-Apr-07 00:25N 46°45' E 038°14'0 0.0
2017-Apr-06 23:55N 46°45' E 038°14'0 0.0
2017-Apr-06 23:25N 46°45' E 038°14'0 0.0
2017-Apr-06 22:55N 46°45' E 038°14'0 0.0
2017-Apr-06 22:19N 46°45' E 038°14'0 0.0
2017-Apr-06 21:55N 46°45' E 038°14'0 0.0
2017-Apr-06 21:25N 46°45' E 038°14'0 0.0
2017-Apr-06 20:49N 46°45' E 038°14'0 0.0
2017-Apr-06 20:25N 46°45' E 038°14'0 0.0
2017-Apr-06 19:58N 46°45' E 038°14'0 0.0
2017-Apr-06 19:28N 46°45' E 038°14'0 0.0
2017-Apr-06 18:58N 46°45' E 038°14'0 0.0
2017-Apr-06 18:13N 46°45' E 038°14'0 0.0
2017-Apr-06 17:34N 46°45' E 038°14'0 0.0
2017-Apr-06 17:28N 46°45' E 038°14'0 0.0
2017-Apr-06 16:46N 46°45' E 038°14'0 0.1
2017-Apr-06 16:28N 46°45' E 038°14'0 0.0
2017-Apr-06 15:58N 46°45' E 038°14'0 0.0
2017-Apr-06 15:28N 46°45' E 038°14'0 0.0
2017-Apr-06 14:58N 46°45' E 038°14'0 0.0
2017-Apr-06 14:28N 46°45' E 038°14'0 0.1
2017-Apr-06 13:28N 46°45' E 038°14'0 0.0
2017-Apr-06 12:52N 46°45' E 038°14'0 0.1
2017-Apr-06 12:28N 46°45' E 038°14'0 0.2
2017-Apr-06 11:58N 46°45' E 038°14'2 3.5
2017-Apr-06 11:30N 46°44' E 038°16'1 0.8
2017-Apr-06 10:48N 46°44' E 038°17'0 0.0
2017-Apr-06 10:30N 46°44' E 038°17'0 0.0
2017-Apr-06 09:54N 46°44' E 038°17'0 0.0
2017-Apr-06 09:30N 46°44' E 038°17'0 0.0
2017-Apr-06 09:00N 46°44' E 038°17'0 0.0
2017-Apr-06 08:30N 46°44' E 038°17'0 0.0
2017-Apr-06 08:00N 46°44' E 038°17'0 0.0
2017-Apr-06 07:30N 46°44' E 038°17'0 0.0
2017-Apr-06 06:57N 46°44' E 038°17'0 0.0
2017-Apr-06 06:30N 46°44' E 038°17'0 0.0
2017-Apr-06 06:00N 46°44' E 038°17'0 0.0
2017-Apr-06 05:30N 46°44' E 038°17'0 0.0
2017-Apr-06 05:00N 46°44' E 038°17'0 0.0
2017-Apr-06 04:30N 46°44' E 038°17'0 0.0
2017-Apr-06 04:00N 46°44' E 038°17'0 0.0
2017-Apr-06 03:30N 46°44' E 038°17'0 0.0
2017-Apr-06 02:58N 46°44' E 038°17'0 0.0
2017-Apr-06 02:28N 46°44' E 038°17'0 0.0
2017-Apr-06 01:52N 46°44' E 038°17'0 0.0
2017-Apr-06 01:28N 46°44' E 038°17'0 0.0
2017-Apr-06 00:58N 46°44' E 038°17'0 0.0
2017-Apr-06 00:28N 46°44' E 038°17'0 0.0
2017-Apr-05 23:58N 46°44' E 038°17'0 0.0
2017-Apr-05 23:28N 46°44' E 038°17'0 0.0
2017-Apr-05 22:58N 46°44' E 038°17'0 0.0
2017-Apr-05 22:28N 46°44' E 038°17'0 0.0
2017-Apr-05 21:58N 46°44' E 038°17'0 0.0
2017-Apr-05 21:28N 46°44' E 038°17'0 0.0
2017-Apr-05 20:58N 46°44' E 038°17'0 0.0
2017-Apr-05 20:10N 46°44' E 038°17'0 0.0
2017-Apr-05 19:58N 46°44' E 038°17'0 0.0
2017-Apr-05 19:28N 46°44' E 038°17'0 0.0
2017-Apr-05 18:58N 46°44' E 038°17'0 0.0
2017-Apr-05 18:25N 46°44' E 038°17'0 0.0
2017-Apr-05 17:55N 46°44' E 038°17'0 0.0
2017-Apr-05 17:04N 46°44' E 038°17'0 0.0
2017-Apr-05 16:58N 46°44' E 038°17'0 0.0
2017-Apr-05 16:25N 46°44' E 038°17'0 0.0
2017-Apr-05 15:58N 46°44' E 038°17'0 0.0
2017-Apr-05 15:28N 46°44' E 038°17'0 0.0
2017-Apr-05 14:58N 46°44' E 038°17'0 0.0
2017-Apr-05 13:58N 46°44' E 038°17'0 0.0
2017-Apr-05 13:28N 46°44' E 038°17'0 0.0
2017-Apr-05 12:58N 46°44' E 038°17'0 0.0
2017-Apr-05 12:19N 46°44' E 038°17'0 0.0
2017-Apr-05 11:34N 46°44' E 038°17'0 0.0
2017-Apr-05 10:25N 46°44' E 038°17'0 0.0
2017-Apr-05 09:52N 46°44' E 038°17'0 0.0
2017-Apr-05 09:13N 46°44' E 038°17'0 0.0
2017-Apr-05 08:55N 46°44' E 038°17'0 0.0
2017-Apr-05 08:28N 46°44' E 038°17'0 0.0
2017-Apr-05 07:55N 46°44' E 038°17'0 0.0
2017-Apr-05 05:43N 46°44' E 038°17'0 0.0
2017-Apr-05 05:13N 46°44' E 038°17'0 0.0
2017-Apr-05 04:55N 46°44' E 038°17'0 0.0
2017-Apr-05 04:25N 46°44' E 038°17'0 0.0
2017-Apr-05 03:55N 46°44' E 038°17'0 0.0
2017-Apr-05 03:30N 46°44' E 038°17'0 0.0
2017-Apr-05 02:58N 46°44' E 038°17'0 0.0
2017-Apr-05 02:28N 46°44' E 038°17'0 0.0
2017-Apr-05 01:52N 46°44' E 038°17'0 0.0
2017-Apr-05 01:28N 46°44' E 038°17'0 0.0
2017-Apr-05 00:58N 46°44' E 038°17'0 0.1
2017-Apr-05 00:28N 46°44' E 038°17'0 0.3
2017-Apr-04 23:58N 46°44' E 038°16'0 0.3
2017-Apr-04 23:28N 46°44' E 038°17'0 0.0
2017-Apr-04 22:58N 46°44' E 038°17'0 0.0
2017-Apr-04 22:19N 46°44' E 038°17'0 0.0
2017-Apr-04 20:52N 46°44' E 038°17'0 0.0
2017-Apr-04 20:28N 46°44' E 038°17'0 0.0
2017-Apr-04 19:52N 46°44' E 038°17'0 0.0
2017-Apr-04 19:28N 46°44' E 038°17'0 0.0
2017-Apr-04 18:58N 46°44' E 038°17'0 0.0
2017-Apr-04 18:28N 46°44' E 038°17'0 0.0
2017-Apr-04 17:58N 46°44' E 038°17'0 0.0
2017-Apr-04 17:28N 46°44' E 038°17'0 0.0
2017-Apr-04 16:58N 46°44' E 038°17'0 0.0
2017-Apr-04 16:28N 46°44' E 038°17'0 0.0
2017-Apr-04 15:58N 46°44' E 038°17'0 0.0
2017-Apr-04 15:28N 46°44' E 038°17'0 0.0
2017-Apr-04 14:58N 46°44' E 038°17'0 0.0
2017-Apr-04 14:28N 46°44' E 038°17'0 0.0
2017-Apr-04 12:16N 46°44' E 038°17'0 0.0
2017-Apr-04 11:46N 46°44' E 038°17'0 0.0
2017-Apr-04 07:49N 46°44' E 038°17'0 0.0
2017-Apr-04 05:37N 46°44' E 038°17'0 0.0
2017-Apr-04 05:13N 46°44' E 038°17'0 0.0
2017-Apr-04 04:46N 46°44' E 038°17'0 0.0
2017-Apr-04 04:28N 46°44' E 038°17'0 0.0
2017-Apr-04 03:58N 46°44' E 038°17'0 0.0
2017-Apr-04 03:16N 46°44' E 038°17'0 0.0
2017-Apr-04 02:58N 46°44' E 038°17'0 0.0
2017-Apr-04 02:28N 46°44' E 038°17'0 0.0
2017-Apr-04 01:52N 46°44' E 038°17'0 0.0
2017-Apr-04 01:28N 46°44' E 038°17'0 0.0
2017-Apr-04 00:58N 46°44' E 038°17'0 0.0
2017-Apr-04 00:28N 46°44' E 038°17'0 0.0
2017-Apr-03 23:52N 46°44' E 038°17'0 0.0
2017-Apr-03 23:28N 46°44' E 038°17'0 0.0
2017-Apr-03 22:58N 46°44' E 038°17'0 0.0
2017-Apr-03 21:40N 46°44' E 038°17'0 0.0
2017-Apr-03 21:28N 46°44' E 038°17'0 0.0
2017-Apr-03 20:58N 46°44' E 038°17'0 0.0
2017-Apr-03 20:28N 46°44' E 038°17'0 0.0
2017-Apr-03 19:58N 46°44' E 038°17'0 0.0
2017-Apr-03 19:28N 46°44' E 038°17'0 0.0
2017-Apr-03 18:55N 46°44' E 038°17'0 0.0
2017-Apr-03 18:28N 46°44' E 038°17'0 0.0
2017-Apr-03 17:52N 46°44' E 038°17'0 0.0
2017-Apr-03 17:28N 46°44' E 038°17'0 0.0
2017-Apr-03 16:55N 46°44' E 038°17'0 0.0
2017-Apr-03 16:25N 46°44' E 038°17'0 0.5
2017-Apr-03 16:00N 46°44' E 038°16'2 3.8
2017-Apr-03 15:30N 46°45' E 038°14'0 0.2
2017-Apr-03 14:53N 46°45' E 038°14'0 0.0
2017-Apr-03 12:32N 46°45' E 038°14'0 0.0
2017-Apr-03 12:26N 46°45' E 038°14'0 0.0
2017-Apr-03 11:56N 46°45' E 038°14'0 0.0
2017-Apr-03 11:26N 46°45' E 038°14'0 0.0
2017-Apr-03 10:56N 46°45' E 038°14'0 0.0
2017-Apr-03 10:26N 46°45' E 038°14'0 0.0
2017-Apr-03 09:23N 46°45' E 038°14'0 0.0
2017-Apr-03 08:56N 46°45' E 038°14'0 0.1
2017-Apr-03 08:20N 46°45' E 038°14'0 0.1
2017-Apr-03 07:50N 46°45' E 038°14'0 0.1
2017-Apr-03 06:32N 46°45' E 038°14'0 0.1
2017-Apr-03 06:20N 46°45' E 038°14'0 0.0
2017-Apr-03 05:56N 46°45' E 038°14'0 0.0
2017-Apr-03 05:14N 46°45' E 038°14'0 0.0
2017-Apr-03 04:56N 46°45' E 038°14'0 0.0
2017-Apr-03 04:26N 46°45' E 038°14'0 0.1
2017-Apr-03 03:56N 46°45' E 038°14'0 0.1
2017-Apr-03 03:26N 46°45' E 038°14'0 0.0
2017-Apr-03 02:56N 46°45' E 038°14'0 0.0
2017-Apr-03 02:26N 46°45' E 038°14'0 0.0
2017-Apr-03 01:56N 46°45' E 038°14'0 0.0
2017-Apr-03 01:26N 46°45' E 038°14'0 0.0
2017-Apr-03 00:56N 46°45' E 038°14'0 0.0
2017-Apr-03 00:25N 46°45' E 038°14'0 0.0
2017-Apr-02 23:55N 46°45' E 038°14'0 0.0
2017-Apr-02 23:25N 46°45' E 038°14'0 0.0
2017-Apr-02 22:55N 46°45' E 038°14'0 0.0
2017-Apr-02 22:19N 46°45' E 038°14'0 0.1
2017-Apr-02 21:55N 46°45' E 038°14'0 0.0
2017-Apr-02 21:25N 46°45' E 038°14'0 0.0
2017-Apr-02 20:55N 46°45' E 038°14'0 0.0
2017-Apr-02 20:25N 46°45' E 038°14'0 0.0
2017-Apr-02 19:55N 46°45' E 038°14'0 0.0
2017-Apr-02 19:25N 46°45' E 038°14'0 0.0
2017-Apr-02 18:58N 46°45' E 038°14'0 0.0
2017-Apr-02 18:22N 46°45' E 038°14'0 0.0
2017-Apr-02 17:52N 46°45' E 038°14'0 0.0
2017-Apr-02 17:25N 46°45' E 038°14'0 0.0
2017-Apr-02 13:52N 46°45' E 038°14'1 1.9
2017-Apr-02 13:30N 46°45' E 038°15'2 0.2
2017-Apr-02 05:52N 46°44' E 038°17'0 0.0
2017-Apr-02 05:28N 46°44' E 038°17'0 0.0
2017-Apr-02 04:58N 46°44' E 038°17'0 0.0
2017-Apr-02 04:28N 46°44' E 038°17'0 0.0
2017-Apr-02 03:58N 46°44' E 038°17'0 0.0
2017-Apr-02 03:28N 46°44' E 038°17'0 0.0
2017-Apr-02 02:58N 46°44' E 038°17'0 0.0
2017-Apr-02 02:28N 46°44' E 038°17'0 0.0
2017-Apr-02 01:58N 46°44' E 038°17'0 0.0
2017-Apr-02 01:28N 46°44' E 038°17'0 0.0
2017-Apr-02 00:58N 46°44' E 038°17'0 0.0
2017-Apr-02 00:28N 46°44' E 038°17'0 0.0
2017-Apr-01 23:58N 46°44' E 038°17'0 0.0
2017-Apr-01 23:28N 46°44' E 038°17'0 0.0
2017-Apr-01 22:58N 46°44' E 038°17'0 0.0
2017-Apr-01 22:28N 46°44' E 038°17'0 0.0
2017-Apr-01 21:58N 46°44' E 038°17'0 0.0
2017-Apr-01 21:28N 46°44' E 038°17'0 0.0
2017-Apr-01 20:58N 46°44' E 038°17'0 0.0
2017-Apr-01 20:22N 46°44' E 038°17'0 0.0
2017-Apr-01 19:58N 46°44' E 038°17'0 0.0
2017-Apr-01 19:28N 46°44' E 038°17'0 0.0
2017-Apr-01 18:58N 46°44' E 038°17'0 0.0
2017-Apr-01 18:22N 46°44' E 038°17'0 0.0
2017-Apr-01 17:28N 46°44' E 038°17'0 0.0
2017-Apr-01 16:55N 46°44' E 038°17'0 0.0
2017-Apr-01 16:22N 46°44' E 038°17'0 0.0
2017-Apr-01 15:58N 46°44' E 038°17'0 0.0
2017-Apr-01 15:22N 46°44' E 038°17'0 0.0
2017-Apr-01 14:55N 46°44' E 038°17'0 0.0
2017-Apr-01 14:25N 46°44' E 038°17'0 0.0
2017-Apr-01 13:13N 46°44' E 038°17'0 0.0
2017-Apr-01 12:52N 46°44' E 038°17'0 0.0
2017-Apr-01 12:28N 46°44' E 038°17'0 0.0
2017-Apr-01 11:58N 46°44' E 038°17'0 0.0
2017-Apr-01 11:28N 46°44' E 038°17'0 0.0
2017-Apr-01 10:58N 46°44' E 038°17'0 0.0
2017-Apr-01 10:04N 46°44' E 038°17'0 0.0
2017-Apr-01 09:58N 46°44' E 038°17'0 0.0
2017-Apr-01 09:22N 46°44' E 038°17'0 0.0
2017-Apr-01 08:07N 46°44' E 038°17'0 0.0
2017-Apr-01 07:55N 46°44' E 038°17'0 0.0
2017-Apr-01 06:34N 46°44' E 038°17'0 0.0
2017-Apr-01 06:19N 46°44' E 038°17'0 0.0
2017-Apr-01 05:55N 46°44' E 038°17'0 0.0
2017-Apr-01 05:28N 46°44' E 038°17'0 0.0
2017-Apr-01 04:58N 46°44' E 038°17'0 0.0
2017-Apr-01 04:28N 46°44' E 038°17'0 0.0
2017-Apr-01 03:58N 46°44' E 038°17'0 0.0
2017-Apr-01 03:28N 46°44' E 038°17'0 0.0
2017-Apr-01 02:52N 46°44' E 038°17'0 0.0
2017-Apr-01 02:28N 46°44' E 038°17'0 0.0
2017-Apr-01 01:58N 46°44' E 038°17'0 0.0
2017-Apr-01 01:28N 46°44' E 038°17'0 0.0
2017-Apr-01 00:58N 46°44' E 038°17'0 0.0
2017-Apr-01 00:28N 46°44' E 038°17'0 0.0
2017-Mar-31 23:58N 46°44' E 038°17'0 0.0
2017-Mar-31 23:28N 46°44' E 038°17'0 0.0
2017-Mar-31 22:52N 46°44' E 038°17'0 0.0
2017-Mar-31 22:28N 46°44' E 038°17'0 0.0
2017-Mar-31 21:58N 46°44' E 038°17'0 0.0
2017-Mar-31 21:28N 46°44' E 038°17'0 0.0
2017-Mar-31 20:58N 46°44' E 038°17'0 0.0
2017-Mar-31 20:28N 46°44' E 038°17'0 0.0
2017-Mar-31 19:58N 46°44' E 038°17'0 0.0
2017-Mar-31 19:28N 46°44' E 038°17'0 0.0
2017-Mar-31 18:58N 46°44' E 038°17'0 0.0
2017-Mar-31 18:28N 46°44' E 038°17'0 0.0
2017-Mar-31 17:55N 46°44' E 038°17'0 0.0
2017-Mar-31 17:22N 46°44' E 038°17'0 0.0
2017-Mar-31 16:40N 46°44' E 038°17'0 0.0
2017-Mar-31 16:28N 46°44' E 038°17'0 0.0
2017-Mar-31 15:58N 46°44' E 038°17'0 0.0
2017-Mar-31 15:28N 46°44' E 038°17'0 0.0
2017-Mar-31 14:49N 46°44' E 038°17'0 0.0
2017-Mar-31 13:49N 46°44' E 038°17'0 0.0
2017-Mar-31 13:19N 46°44' E 038°17'0 0.0
2017-Mar-31 12:55N 46°44' E 038°17'0 0.0
2017-Mar-31 12:28N 46°44' E 038°17'0 0.0
2017-Mar-31 11:58N 46°44' E 038°17'0 0.0
2017-Mar-31 11:28N 46°44' E 038°17'0 0.0
2017-Mar-31 10:58N 46°44' E 038°17'0 0.0
2017-Mar-31 10:16N 46°44' E 038°17'0 0.0
2017-Mar-31 09:58N 46°44' E 038°17'0 0.0
2017-Mar-31 08:43N 46°44' E 038°17'0 0.0
2017-Mar-31 08:25N 46°44' E 038°17'0 0.0
2017-Mar-31 07:55N 46°44' E 038°17'0 0.0
2017-Mar-31 07:28N 46°44' E 038°17'0 0.0
2017-Mar-31 06:58N 46°44' E 038°17'0 0.0
2017-Mar-31 06:28N 46°44' E 038°17'0 0.0
2017-Mar-31 05:58N 46°44' E 038°17'0 0.0
2017-Mar-31 05:28N 46°44' E 038°17'0 0.0
2017-Mar-31 04:58N 46°44' E 038°17'0 0.0
2017-Mar-31 04:28N 46°44' E 038°17'0 0.0
2017-Mar-31 03:33N 46°44' E 038°17'0 0.0
2017-Mar-31 02:33N 46°44' E 038°17'0 0.0
2017-Mar-31 01:33N 46°44' E 038°17'0 0.0
2017-Mar-31 00:33N 46°44' E 038°17'0 0.0
2017-Mar-30 23:21N 46°44' E 038°17'0 0.0
2017-Mar-30 21:27N 46°44' E 038°17'0 0.0
2017-Mar-30 00:03N 46°44' E 038°17'0 0.0
2017-Mar-29 23:33N 46°44' E 038°17'0 0.0
2017-Mar-29 22:33N 46°44' E 038°17'0 0.0
2017-Mar-29 21:27N 46°44' E 038°17'  
Track history (hours):
 
Tides and Currents Weather Stations Pressure Air Temp Water Temp Dewpoint Dewpoint Depression Visibility Wind Speed Wind Dir Waves Ship Positions

Sv.knyaz Vladimir

Last reported at 2017-Apr-08 19:55 UTC. Time now 2017-Apr-24 05:26 UTC.
Position N 45°05' E 036°29'.
Warning: this ship's position is 15 days out of date.

Length 128 m; draft 3.5 m.

Type: Cargo ship. MMSI: 273350360.

Date/timePositionNaut miles runAvg speedWind from/ knotsBaromVisibWave heightAir tempDewpointWater temp
2017-Apr-08 19:55N 45°05' E 036°29'4 8.4
2017-Apr-08 19:29N 45°08' E 036°29'4 8.4
2017-Apr-08 19:00N 45°12' E 036°28'4 7.9
2017-Apr-08 18:30N 45°16' E 036°28'3 6.9
2017-Apr-08 18:00N 45°19' E 036°32'4 8.7
2017-Apr-08 17:30N 45°21' E 036°37'4 7.5
2017-Apr-08 17:00N 45°24' E 036°40'3 6.6
2017-Apr-08 16:30N 45°27' E 036°40'1 2.3
2017-Apr-08 15:58N 45°28' E 036°40'0 0.0
2017-Apr-08 15:25N 45°28' E 036°40'0 0.0
2017-Apr-08 14:58N 45°28' E 036°40'0 0.2
2017-Apr-08 14:01N 45°28' E 036°40'3 6.9
2017-Apr-08 13:30N 45°30' E 036°44'4 8.3
2017-Apr-08 13:00N 45°34' E 036°46'93 3.3
2017-Apr-07 08:31N 46°45' E 038°14'0 0.1
2017-Apr-07 08:25N 46°45' E 038°14'0 0.0
2017-Apr-07 07:16N 46°45' E 038°14'0 0.1
2017-Apr-07 05:22N 46°45' E 038°14'0 0.0
2017-Apr-07 04:49N 46°45' E 038°14'0 0.0
2017-Apr-07 04:25N 46°45' E 038°14'0 0.0
2017-Apr-07 03:55N 46°45' E 038°14'0 0.0
2017-Apr-07 03:25N 46°45' E 038°14'0 0.1
2017-Apr-07 02:55N 46°45' E 038°14'0 0.0
2017-Apr-07 02:25N 46°45' E 038°14'0 0.0
2017-Apr-07 01:55N 46°45' E 038°14'0 0.0
2017-Apr-07 01:25N 46°45' E 038°14'0 0.0
2017-Apr-07 00:55N 46°45' E 038°14'0 0.0
2017-Apr-07 00:25N 46°45' E 038°14'0 0.0
2017-Apr-06 23:55N 46°45' E 038°14'0 0.0
2017-Apr-06 23:25N 46°45' E 038°14'0 0.0
2017-Apr-06 22:55N 46°45' E 038°14'0 0.0
2017-Apr-06 22:19N 46°45' E 038°14'0 0.0
2017-Apr-06 21:55N 46°45' E 038°14'0 0.0
2017-Apr-06 21:25N 46°45' E 038°14'0 0.0
2017-Apr-06 20:49N 46°45' E 038°14'0 0.0
2017-Apr-06 20:25N 46°45' E 038°14'0 0.0
2017-Apr-06 19:58N 46°45' E 038°14'0 0.0
2017-Apr-06 19:28N 46°45' E 038°14'0 0.0
2017-Apr-06 18:58N 46°45' E 038°14'0 0.0
2017-Apr-06 18:13N 46°45' E 038°14'0 0.0
2017-Apr-06 17:34N 46°45' E 038°14'0 0.0
2017-Apr-06 17:28N 46°45' E 038°14'0 0.0
2017-Apr-06 16:46N 46°45' E 038°14'0 0.1
2017-Apr-06 16:28N 46°45' E 038°14'0 0.0
2017-Apr-06 15:58N 46°45' E 038°14'0 0.0
2017-Apr-06 15:28N 46°45' E 038°14'0 0.0
2017-Apr-06 14:58N 46°45' E 038°14'0 0.0
2017-Apr-06 14:28N 46°45' E 038°14'0 0.1
2017-Apr-06 13:28N 46°45' E 038°14'0 0.0
2017-Apr-06 12:52N 46°45' E 038°14'0 0.1
2017-Apr-06 12:28N 46°45' E 038°14'0 0.2
2017-Apr-06 11:58N 46°45' E 038°14'2 3.5
2017-Apr-06 11:30N 46°44' E 038°16'1 0.8
2017-Apr-06 10:48N 46°44' E 038°17'0 0.0
2017-Apr-06 10:30N 46°44' E 038°17'0 0.0
2017-Apr-06 09:54N 46°44' E 038°17'0 0.0
2017-Apr-06 09:30N 46°44' E 038°17'0 0.0
2017-Apr-06 09:00N 46°44' E 038°17'0 0.0
2017-Apr-06 08:30N 46°44' E 038°17'0 0.0
2017-Apr-06 08:00N 46°44' E 038°17'0 0.0
2017-Apr-06 07:30N 46°44' E 038°17'0 0.0
2017-Apr-06 06:57N 46°44' E 038°17'0 0.0
2017-Apr-06 06:30N 46°44' E 038°17'0 0.0
2017-Apr-06 06:00N 46°44' E 038°17'0 0.0
2017-Apr-06 05:30N 46°44' E 038°17'0 0.0
2017-Apr-06 05:00N 46°44' E 038°17'0 0.0
2017-Apr-06 04:30N 46°44' E 038°17'0 0.0
2017-Apr-06 04:00N 46°44' E 038°17'0 0.0
2017-Apr-06 03:30N 46°44' E 038°17'0 0.0
2017-Apr-06 02:58N 46°44' E 038°17'0 0.0
2017-Apr-06 02:28N 46°44' E 038°17'0 0.0
2017-Apr-06 01:52N 46°44' E 038°17'0 0.0
2017-Apr-06 01:28N 46°44' E 038°17'0 0.0
2017-Apr-06 00:58N 46°44' E 038°17'0 0.0
2017-Apr-06 00:28N 46°44' E 038°17'0 0.0
2017-Apr-05 23:58N 46°44' E 038°17'0 0.0
2017-Apr-05 23:28N 46°44' E 038°17'0 0.0
2017-Apr-05 22:58N 46°44' E 038°17'0 0.0
2017-Apr-05 22:28N 46°44' E 038°17'0 0.0
2017-Apr-05 21:58N 46°44' E 038°17'0 0.0
2017-Apr-05 21:28N 46°44' E 038°17'0 0.0
2017-Apr-05 20:58N 46°44' E 038°17'0 0.0
2017-Apr-05 20:10N 46°44' E 038°17'0 0.0
2017-Apr-05 19:58N 46°44' E 038°17'0 0.0
2017-Apr-05 19:28N 46°44' E 038°17'0 0.0
2017-Apr-05 18:58N 46°44' E 038°17'0 0.0
2017-Apr-05 18:25N 46°44' E 038°17'0 0.0
2017-Apr-05 17:55N 46°44' E 038°17'0 0.0
2017-Apr-05 17:04N 46°44' E 038°17'0 0.0
2017-Apr-05 16:58N 46°44' E 038°17'0 0.0
2017-Apr-05 16:25N 46°44' E 038°17'0 0.0
2017-Apr-05 15:58N 46°44' E 038°17'0 0.0
2017-Apr-05 15:28N 46°44' E 038°17'0 0.0
2017-Apr-05 14:58N 46°44' E 038°17'0 0.0
2017-Apr-05 13:58N 46°44' E 038°17'0 0.0
2017-Apr-05 13:28N 46°44' E 038°17'0 0.0
2017-Apr-05 12:58N 46°44' E 038°17'0 0.0
2017-Apr-05 12:19N 46°44' E 038°17'0 0.0
2017-Apr-05 11:34N 46°44' E 038°17'0 0.0
2017-Apr-05 10:25N 46°44' E 038°17'0 0.0
2017-Apr-05 09:52N 46°44' E 038°17'0 0.0
2017-Apr-05 09:13N 46°44' E 038°17'0 0.0
2017-Apr-05 08:55N 46°44' E 038°17'0 0.0
2017-Apr-05 08:28N 46°44' E 038°17'0 0.0
2017-Apr-05 07:55N 46°44' E 038°17'0 0.0
2017-Apr-05 05:43N 46°44' E 038°17'0 0.0
2017-Apr-05 05:13N 46°44' E 038°17'0 0.0
2017-Apr-05 04:55N 46°44' E 038°17'0 0.0
2017-Apr-05 04:25N 46°44' E 038°17'0 0.0
2017-Apr-05 03:55N 46°44' E 038°17'0 0.0
2017-Apr-05 03:30N 46°44' E 038°17'0 0.0
2017-Apr-05 02:58N 46°44' E 038°17'0 0.0
2017-Apr-05 02:28N 46°44' E 038°17'0 0.0
2017-Apr-05 01:52N 46°44' E 038°17'0 0.0
2017-Apr-05 01:28N 46°44' E 038°17'0 0.0
2017-Apr-05 00:58N 46°44' E 038°17'0 0.1
2017-Apr-05 00:28N 46°44' E 038°17'0 0.3
2017-Apr-04 23:58N 46°44' E 038°16'0 0.3
2017-Apr-04 23:28N 46°44' E 038°17'0 0.0
2017-Apr-04 22:58N 46°44' E 038°17'0 0.0
2017-Apr-04 22:19N 46°44' E 038°17'0 0.0
2017-Apr-04 20:52N 46°44' E 038°17'0 0.0
2017-Apr-04 20:28N 46°44' E 038°17'0 0.0
2017-Apr-04 19:52N 46°44' E 038°17'0 0.0
2017-Apr-04 19:28N 46°44' E 038°17'0 0.0
2017-Apr-04 18:58N 46°44' E 038°17'0 0.0
2017-Apr-04 18:28N 46°44' E 038°17'0 0.0
2017-Apr-04 17:58N 46°44' E 038°17'0 0.0
2017-Apr-04 17:28N 46°44' E 038°17'0 0.0
2017-Apr-04 16:58N 46°44' E 038°17'0 0.0
2017-Apr-04 16:28N 46°44' E 038°17'0 0.0
2017-Apr-04 15:58N 46°44' E 038°17'0 0.0
2017-Apr-04 15:28N 46°44' E 038°17'0 0.0
2017-Apr-04 14:58N 46°44' E 038°17'0 0.0
2017-Apr-04 14:28N 46°44' E 038°17'0 0.0
2017-Apr-04 12:16N 46°44' E 038°17'0 0.0
2017-Apr-04 11:46N 46°44' E 038°17'0 0.0
2017-Apr-04 07:49N 46°44' E 038°17'0 0.0
2017-Apr-04 05:37N 46°44' E 038°17'0 0.0
2017-Apr-04 05:13N 46°44' E 038°17'0 0.0
2017-Apr-04 04:46N 46°44' E 038°17'0 0.0
2017-Apr-04 04:28N 46°44' E 038°17'0 0.0
2017-Apr-04 03:58N 46°44' E 038°17'0 0.0
2017-Apr-04 03:16N 46°44' E 038°17'0 0.0
2017-Apr-04 02:58N 46°44' E 038°17'0 0.0
2017-Apr-04 02:28N 46°44' E 038°17'0 0.0
2017-Apr-04 01:52N 46°44' E 038°17'0 0.0
2017-Apr-04 01:28N 46°44' E 038°17'0 0.0
2017-Apr-04 00:58N 46°44' E 038°17'0 0.0
2017-Apr-04 00:28N 46°44' E 038°17'0 0.0
2017-Apr-03 23:52N 46°44' E 038°17'0 0.0
2017-Apr-03 23:28N 46°44' E 038°17'0 0.0
2017-Apr-03 22:58N 46°44' E 038°17'0 0.0
2017-Apr-03 21:40N 46°44' E 038°17'0 0.0
2017-Apr-03 21:28N 46°44' E 038°17'0 0.0
2017-Apr-03 20:58N 46°44' E 038°17'0 0.0
2017-Apr-03 20:28N 46°44' E 038°17'0 0.0
2017-Apr-03 19:58N 46°44' E 038°17'0 0.0
2017-Apr-03 19:28N 46°44' E 038°17'0 0.0
2017-Apr-03 18:55N 46°44' E 038°17'0 0.0
2017-Apr-03 18:28N 46°44' E 038°17'0 0.0
2017-Apr-03 17:52N 46°44' E 038°17'0 0.0
2017-Apr-03 17:28N 46°44' E 038°17'0 0.0
2017-Apr-03 16:55N 46°44' E 038°17'0 0.0
2017-Apr-03 16:25N 46°44' E 038°17'0 0.5
2017-Apr-03 16:00N 46°44' E 038°16'2 3.8
2017-Apr-03 15:30N 46°45' E 038°14'0 0.2
2017-Apr-03 14:53N 46°45' E 038°14'0 0.0
2017-Apr-03 12:32N 46°45' E 038°14'0 0.0
2017-Apr-03 12:26N 46°45' E 038°14'0 0.0
2017-Apr-03 11:56N 46°45' E 038°14'0 0.0
2017-Apr-03 11:26N 46°45' E 038°14'0 0.0
2017-Apr-03 10:56N 46°45' E 038°14'0 0.0
2017-Apr-03 10:26N 46°45' E 038°14'0 0.0
2017-Apr-03 09:23N 46°45' E 038°14'0 0.0
2017-Apr-03 08:56N 46°45' E 038°14'0 0.1
2017-Apr-03 08:20N 46°45' E 038°14'0 0.1
2017-Apr-03 07:50N 46°45' E 038°14'0 0.1
2017-Apr-03 06:32N 46°45' E 038°14'0 0.1
2017-Apr-03 06:20N 46°45' E 038°14'0 0.0
2017-Apr-03 05:56N 46°45' E 038°14'0 0.0
2017-Apr-03 05:14N 46°45' E 038°14'0 0.0
2017-Apr-03 04:56N 46°45' E 038°14'0 0.0
2017-Apr-03 04:26N 46°45' E 038°14'0 0.1
2017-Apr-03 03:56N 46°45' E 038°14'0 0.1
2017-Apr-03 03:26N 46°45' E 038°14'0 0.0
2017-Apr-03 02:56N 46°45' E 038°14'0 0.0
2017-Apr-03 02:26N 46°45' E 038°14'0 0.0
2017-Apr-03 01:56N 46°45' E 038°14'0 0.0
2017-Apr-03 01:26N 46°45' E 038°14'0 0.0
2017-Apr-03 00:56N 46°45' E 038°14'0 0.0
2017-Apr-03 00:25N 46°45' E 038°14'0 0.0
2017-Apr-02 23:55N 46°45' E 038°14'0 0.0
2017-Apr-02 23:25N 46°45' E 038°14'0 0.0
2017-Apr-02 22:55N 46°45' E 038°14'0 0.0
2017-Apr-02 22:19N 46°45' E 038°14'0 0.1
2017-Apr-02 21:55N 46°45' E 038°14'0 0.0
2017-Apr-02 21:25N 46°45' E 038°14'0 0.0
2017-Apr-02 20:55N 46°45' E 038°14'0 0.0
2017-Apr-02 20:25N 46°45' E 038°14'0 0.0
2017-Apr-02 19:55N 46°45' E 038°14'0 0.0
2017-Apr-02 19:25N 46°45' E 038°14'0 0.0
2017-Apr-02 18:58N 46°45' E 038°14'0 0.0
2017-Apr-02 18:22N 46°45' E 038°14'0 0.0
2017-Apr-02 17:52N 46°45' E 038°14'0 0.0
2017-Apr-02 17:25N 46°45' E 038°14'0 0.0
2017-Apr-02 13:52N 46°45' E 038°14'1 1.9
2017-Apr-02 13:30N 46°45' E 038°15'2 0.2
2017-Apr-02 05:52N 46°44' E 038°17'0 0.0
2017-Apr-02 05:28N 46°44' E 038°17'0 0.0
2017-Apr-02 04:58N 46°44' E 038°17'0 0.0
2017-Apr-02 04:28N 46°44' E 038°17'0 0.0
2017-Apr-02 03:58N 46°44' E 038°17'0 0.0
2017-Apr-02 03:28N 46°44' E 038°17'0 0.0
2017-Apr-02 02:58N 46°44' E 038°17'0 0.0
2017-Apr-02 02:28N 46°44' E 038°17'0 0.0
2017-Apr-02 01:58N 46°44' E 038°17'0 0.0
2017-Apr-02 01:28N 46°44' E 038°17'0 0.0
2017-Apr-02 00:58N 46°44' E 038°17'0 0.0
2017-Apr-02 00:28N 46°44' E 038°17'0 0.0
2017-Apr-01 23:58N 46°44' E 038°17'0 0.0
2017-Apr-01 23:28N 46°44' E 038°17'0 0.0
2017-Apr-01 22:58N 46°44' E 038°17'0 0.0
2017-Apr-01 22:28N 46°44' E 038°17'0 0.0
2017-Apr-01 21:58N 46°44' E 038°17'0 0.0
2017-Apr-01 21:28N 46°44' E 038°17'0 0.0
2017-Apr-01 20:58N 46°44' E 038°17'0 0.0
2017-Apr-01 20:22N 46°44' E 038°17'0 0.0
2017-Apr-01 19:58N 46°44' E 038°17'0 0.0
2017-Apr-01 19:28N 46°44' E 038°17'0 0.0
2017-Apr-01 18:58N 46°44' E 038°17'0 0.0
2017-Apr-01 18:22N 46°44' E 038°17'0 0.0
2017-Apr-01 17:28N 46°44' E 038°17'0 0.0
2017-Apr-01 16:55N 46°44' E 038°17'0 0.0
2017-Apr-01 16:22N 46°44' E 038°17'0 0.0
2017-Apr-01 15:58N 46°44' E 038°17'0 0.0
2017-Apr-01 15:22N 46°44' E 038°17'0 0.0
2017-Apr-01 14:55N 46°44' E 038°17'0 0.0
2017-Apr-01 14:25N 46°44' E 038°17'0 0.0
2017-Apr-01 13:13N 46°44' E 038°17'0 0.0
2017-Apr-01 12:52N 46°44' E 038°17'0 0.0
2017-Apr-01 12:28N 46°44' E 038°17'0 0.0
2017-Apr-01 11:58N 46°44' E 038°17'0 0.0
2017-Apr-01 11:28N 46°44' E 038°17'0 0.0
2017-Apr-01 10:58N 46°44' E 038°17'0 0.0
2017-Apr-01 10:04N 46°44' E 038°17'0 0.0
2017-Apr-01 09:58N 46°44' E 038°17'0 0.0
2017-Apr-01 09:22N 46°44' E 038°17'0 0.0
2017-Apr-01 08:07N 46°44' E 038°17'0 0.0
2017-Apr-01 07:55N 46°44' E 038°17'0 0.0
2017-Apr-01 06:34N 46°44' E 038°17'0 0.0
2017-Apr-01 06:19N 46°44' E 038°17'0 0.0
2017-Apr-01 05:55N 46°44' E 038°17'0 0.0
2017-Apr-01 05:28N 46°44' E 038°17'0 0.0
2017-Apr-01 04:58N 46°44' E 038°17'0 0.0
2017-Apr-01 04:28N 46°44' E 038°17'0 0.0
2017-Apr-01 03:58N 46°44' E 038°17'0 0.0
2017-Apr-01 03:28N 46°44' E 038°17'0 0.0
2017-Apr-01 02:52N 46°44' E 038°17'0 0.0
2017-Apr-01 02:28N 46°44' E 038°17'0 0.0
2017-Apr-01 01:58N 46°44' E 038°17'0 0.0
2017-Apr-01 01:28N 46°44' E 038°17'0 0.0
2017-Apr-01 00:58N 46°44' E 038°17'0 0.0
2017-Apr-01 00:28N 46°44' E 038°17'0 0.0
2017-Mar-31 23:58N 46°44' E 038°17'0 0.0
2017-Mar-31 23:28N 46°44' E 038°17'0 0.0
2017-Mar-31 22:52N 46°44' E 038°17'0 0.0
2017-Mar-31 22:28N 46°44' E 038°17'0 0.0
2017-Mar-31 21:58N 46°44' E 038°17'0 0.0
2017-Mar-31 21:28N 46°44' E 038°17'0 0.0
2017-Mar-31 20:58N 46°44' E 038°17'0 0.0
2017-Mar-31 20:28N 46°44' E 038°17'0 0.0
2017-Mar-31 19:58N 46°44' E 038°17'0 0.0
2017-Mar-31 19:28N 46°44' E 038°17'0 0.0
2017-Mar-31 18:58N 46°44' E 038°17'0 0.0
2017-Mar-31 18:28N 46°44' E 038°17'0 0.0
2017-Mar-31 17:55N 46°44' E 038°17'0 0.0
2017-Mar-31 17:22N 46°44' E 038°17'0 0.0
2017-Mar-31 16:40N 46°44' E 038°17'0 0.0
2017-Mar-31 16:28N 46°44' E 038°17'0 0.0
2017-Mar-31 15:58N 46°44' E 038°17'0 0.0
2017-Mar-31 15:28N 46°44' E 038°17'0 0.0
2017-Mar-31 14:49N 46°44' E 038°17'0 0.0
2017-Mar-31 13:49N 46°44' E 038°17'0 0.0
2017-Mar-31 13:19N 46°44' E 038°17'0 0.0
2017-Mar-31 12:55N 46°44' E 038°17'0 0.0
2017-Mar-31 12:28N 46°44' E 038°17'0 0.0
2017-Mar-31 11:58N 46°44' E 038°17'0 0.0
2017-Mar-31 11:28N 46°44' E 038°17'0 0.0
2017-Mar-31 10:58N 46°44' E 038°17'0 0.0
2017-Mar-31 10:16N 46°44' E 038°17'0 0.0
2017-Mar-31 09:58N 46°44' E 038°17'0 0.0
2017-Mar-31 08:43N 46°44' E 038°17'0 0.0
2017-Mar-31 08:25N 46°44' E 038°17'0 0.0
2017-Mar-31 07:55N 46°44' E 038°17'0 0.0
2017-Mar-31 07:28N 46°44' E 038°17'0 0.0
2017-Mar-31 06:58N 46°44' E 038°17'0 0.0
2017-Mar-31 06:28N 46°44' E 038°17'0 0.0
2017-Mar-31 05:58N 46°44' E 038°17'0 0.0
2017-Mar-31 05:28N 46°44' E 038°17'0 0.0
2017-Mar-31 04:58N 46°44' E 038°17'0 0.0
2017-Mar-31 04:28N 46°44' E 038°17'0 0.0
2017-Mar-31 03:33N 46°44' E 038°17'0 0.0
2017-Mar-31 02:33N 46°44' E 038°17'0 0.0
2017-Mar-31 01:33N 46°44' E 038°17'0 0.0
2017-Mar-31 00:33N 46°44' E 038°17'0 0.0
2017-Mar-30 23:21N 46°44' E 038°17'0 0.0
2017-Mar-30 21:27N 46°44' E 038°17'0 0.0
2017-Mar-30 00:03N 46°44' E 038°17'0 0.0
2017-Mar-29 23:33N 46°44' E 038°17'0 0.0
2017-Mar-29 22:33N 46°44' E 038°17'0 0.0
2017-Mar-29 21:27N 46°44' E 038°17'  

Dump ship's entire track history